createdAt,value
2024-03-24T00:00:13.134Z,84.1054
2024-03-24T00:01:16.161Z,84.7599
2024-03-24T00:02:19.195Z,84.3904
2024-03-24T00:03:22.215Z,84.4039
2024-03-24T00:04:25.288Z,83.3310
2024-03-24T00:05:28.323Z,84.1733
2024-03-24T00:06:31.367Z,83.8959
2024-03-24T00:07:34.396Z,83.3567
2024-03-24T00:08:37.442Z,83.2258
2024-03-24T00:09:40.495Z,83.9598
2024-03-24T00:10:43.533Z,83.0092
2024-03-24T00:11:46.574Z,83.0143
2024-03-24T00:12:49.599Z,83.4746
2024-03-24T00:13:52.652Z,83.3895
2024-03-24T00:14:55.686Z,83.5370
2024-03-24T00:15:59.066Z,83.7738
2024-03-24T00:17:02.121Z,83.0602
2024-03-24T00:18:05.126Z,83.0391
2024-03-24T00:19:08.219Z,83.2959
2024-03-24T00:20:11.252Z,82.5819
2024-03-24T00:21:14.261Z,83.2609
2024-03-24T00:22:17.550Z,82.5425
2024-03-24T00:23:20.590Z,82.8415
2024-03-24T00:24:23.728Z,81.4627
2024-03-24T00:25:26.734Z,81.8109
2024-03-24T00:26:29.769Z,81.4118
2024-03-24T00:27:32.745Z,81.5268
2024-03-24T00:28:35.921Z,82.7109
2024-03-24T00:29:38.939Z,82.5329
2024-03-24T00:30:41.900Z,82.8567
2024-03-24T00:31:44.983Z,82.3043
2024-03-24T00:32:48.018Z,82.5661
2024-03-24T00:33:51.040Z,82.3624
2024-03-24T00:34:54.410Z,81.9025
2024-03-24T00:35:57.608Z,81.8503
2024-03-24T00:37:00.797Z,82.0351
2024-03-24T00:38:03.825Z,82.5458
2024-03-24T00:39:06.883Z,82.3090
2024-03-24T00:40:09.918Z,82.3982
2024-03-24T00:41:12.909Z,83.1542
2024-03-24T00:42:16.004Z,82.4063
2024-03-24T00:43:19.058Z,82.5220
2024-03-24T00:44:22.099Z,81.9910
2024-03-24T00:45:25.146Z,83.1781
2024-03-24T00:46:28.180Z,82.6512
2024-03-24T00:47:31.244Z,83.3618
2024-03-24T00:48:34.247Z,83.9513
2024-03-24T00:49:37.244Z,83.3421
2024-03-24T00:50:40.347Z,83.4818
2024-03-24T00:51:43.362Z,83.0016
2024-03-24T00:52:46.669Z,83.3668
2024-03-24T00:53:49.766Z,83.1907
2024-03-24T00:54:52.787Z,83.5726
2024-03-24T00:55:55.844Z,83.0443
2024-03-24T00:56:58.901Z,83.0542
2024-03-24T00:58:02.275Z,83.8431
2024-03-24T00:59:05.286Z,84.3894
2024-03-24T01:00:08.324Z,84.9694
2024-03-24T01:01:11.391Z,84.7152
2024-03-24T01:02:14.355Z,84.9300
2024-03-24T01:03:17.451Z,84.6458
2024-03-24T01:04:20.507Z,84.5585
2024-03-24T01:05:23.556Z,85.2442
2024-03-24T01:06:26.601Z,85.0028
2024-03-24T01:07:29.676Z,85.3170
2024-03-24T01:08:32.724Z,85.2252
2024-03-24T01:09:35.712Z,85.0727
2024-03-24T01:10:38.752Z,85.1792
2024-03-24T01:11:41.900Z,85.1420
2024-03-24T01:12:44.883Z,85.3609
2024-03-24T01:13:47.900Z,85.8390
2024-03-24T01:14:50.904Z,85.8853
2024-03-24T01:15:53.930Z,86.1746
2024-03-24T01:16:56.893Z,86.2524
2024-03-24T01:18:00.015Z,86.2206
2024-03-24T01:19:03.094Z,85.7704
2024-03-24T01:20:06.073Z,86.0188
2024-03-24T01:21:09.150Z,86.2042
2024-03-24T01:22:12.202Z,86.5453
2024-03-24T01:23:15.198Z,86.5693
2024-03-24T01:24:18.250Z,86.4577
2024-03-24T01:25:21.292Z,86.4782
2024-03-24T01:26:24.392Z,86.6573
2024-03-24T01:27:27.422Z,86.9607
2024-03-24T01:28:30.542Z,86.8666
2024-03-24T01:29:33.532Z,86.7864
2024-03-24T01:30:36.581Z,87.0536
2024-03-24T01:31:39.652Z,87.0272
2024-03-24T01:32:42.652Z,86.7884
2024-03-24T01:33:45.673Z,86.6451
2024-03-24T01:34:48.967Z,86.9795
2024-03-24T01:35:52.045Z,87.0942
2024-03-24T01:36:55.061Z,87.5187
2024-03-24T01:37:58.062Z,87.8127
2024-03-24T01:39:01.132Z,87.8676
2024-03-24T01:40:04.167Z,88.0892
2024-03-24T01:41:07.189Z,88.4487
2024-03-24T01:42:10.196Z,88.0562
2024-03-24T01:43:13.298Z,88.2639
2024-03-24T01:44:16.342Z,88.8067
2024-03-24T01:45:19.353Z,87.9556
2024-03-24T01:46:22.462Z,88.3272
2024-03-24T01:47:25.486Z,88.3482
2024-03-24T01:48:28.493Z,88.7606
2024-03-24T01:49:31.675Z,89.0386
2024-03-24T01:50:34.703Z,89.1941
2024-03-24T01:51:37.684Z,89.4950
2024-03-24T01:52:40.715Z,89.6997
2024-03-24T01:53:43.684Z,89.5316
2024-03-24T01:54:46.746Z,89.6009
2024-03-24T01:55:49.763Z,89.8367
2024-03-24T01:56:52.821Z,89.8394
2024-03-24T01:57:55.867Z,90.1084
2024-03-24T01:58:58.915Z,90.2965
2024-03-24T02:00:01.915Z,90.3181
2024-03-24T02:01:04.936Z,90.1960
2024-03-24T02:02:07.946Z,90.1706
2024-03-24T02:03:11.023Z,90.1469
2024-03-24T02:04:14.132Z,90.1541
2024-03-24T02:05:17.088Z,90.3612
2024-03-24T02:06:20.131Z,90.7052
2024-03-24T02:07:23.166Z,91.0749
2024-03-24T02:08:26.190Z,90.6607
2024-03-24T02:09:29.234Z,90.5823
2024-03-24T02:10:32.275Z,90.9864
2024-03-24T02:11:35.318Z,91.2843
2024-03-24T02:12:38.312Z,91.3803
2024-03-24T02:13:41.426Z,91.5462
2024-03-24T02:14:44.441Z,91.2539
2024-03-24T02:15:47.467Z,91.1269
2024-03-24T02:16:50.535Z,91.1867
2024-03-24T02:17:57.815Z,91.4256
2024-03-24T02:18:55.646Z,91.5680
2024-03-24T02:19:58.644Z,91.5972
2024-03-24T02:21:01.726Z,91.6771
2024-03-24T02:22:04.755Z,91.6481
2024-03-24T02:23:07.914Z,91.6966
2024-03-24T02:24:10.907Z,91.8549
2024-03-24T02:25:13.920Z,91.9131
2024-03-24T02:26:17.267Z,92.1172
2024-03-24T02:27:20.344Z,92.1450
2024-03-24T02:28:23.384Z,92.1901
2024-03-24T02:29:26.674Z,92.3074
2024-03-24T02:30:26.588Z,92.3454
2024-03-24T02:31:29.577Z,92.4290
2024-03-24T02:32:32.669Z,92.5136
2024-03-24T02:33:35.703Z,92.6796
2024-03-24T02:34:38.723Z,92.8467
2024-03-24T02:35:41.726Z,92.9631
2024-03-24T02:36:44.753Z,93.0271
2024-03-24T02:37:47.799Z,93.0405
2024-03-24T02:38:50.844Z,93.2978
2024-03-24T02:39:53.952Z,93.3529
2024-03-24T02:40:56.985Z,93.3979
2024-03-24T02:42:00.072Z,93.4363
2024-03-24T02:43:03.109Z,93.4510
2024-03-24T02:44:06.149Z,93.4901
2024-03-24T02:45:09.244Z,93.4491
2024-03-24T02:46:12.273Z,93.4295
2024-03-24T02:47:15.488Z,93.4379
2024-03-24T02:48:18.532Z,93.5326
2024-03-24T02:49:21.554Z,93.6890
2024-03-24T02:50:24.586Z,93.6700
2024-03-24T02:51:27.906Z,93.6127
2024-03-24T02:52:30.993Z,93.6305
2024-03-24T02:53:34.068Z,93.5752
2024-03-24T02:54:37.136Z,93.4724
2024-03-24T02:55:40.136Z,93.4010
2024-03-24T02:56:43.154Z,93.2774
2024-03-24T02:57:46.353Z,93.2553
2024-03-24T02:58:49.351Z,93.3951
2024-03-24T02:59:52.617Z,93.3153
2024-03-24T03:00:55.624Z,93.3985
2024-03-24T03:01:58.677Z,93.5164
2024-03-24T03:03:01.712Z,93.5951
2024-03-24T03:04:04.708Z,93.5098
2024-03-24T03:05:07.811Z,93.4535
2024-03-24T03:06:11.170Z,93.4707
2024-03-24T03:07:14.174Z,93.3149
2024-03-24T03:08:17.195Z,93.1941
2024-03-24T03:09:20.285Z,93.2674
2024-03-24T03:10:23.324Z,93.3488
2024-03-24T03:11:26.341Z,93.3959
2024-03-24T03:12:29.421Z,93.5408
2024-03-24T03:13:32.409Z,93.6330
2024-03-24T03:14:35.478Z,93.5767
2024-03-24T03:15:38.687Z,93.3494
2024-03-24T03:16:41.692Z,92.9685
2024-03-24T03:17:44.673Z,92.7443
2024-03-24T03:18:47.963Z,92.7331
2024-03-24T03:19:50.990Z,92.7380
2024-03-24T03:20:54.043Z,92.9140
2024-03-24T03:21:57.042Z,92.9603
2024-03-24T03:23:00.144Z,92.9822
2024-03-24T03:24:03.159Z,93.0698
2024-03-24T03:25:06.205Z,92.9463
2024-03-24T03:26:09.240Z,92.8255
2024-03-24T03:27:12.229Z,92.6413
2024-03-24T03:28:15.333Z,92.6980
2024-03-24T03:29:18.364Z,92.7231
2024-03-24T03:30:21.443Z,92.8483
2024-03-24T03:31:24.443Z,93.0779
2024-03-24T03:32:27.498Z,93.1831
2024-03-24T03:33:30.555Z,93.2626
2024-03-24T03:34:33.565Z,93.2138
2024-03-24T03:35:36.604Z,93.3427
2024-03-24T03:36:39.640Z,93.5234
2024-03-24T03:37:42.735Z,93.6917
2024-03-24T03:38:45.818Z,93.9652
2024-03-24T03:39:48.882Z,94.1632
2024-03-24T03:40:51.901Z,94.2678
2024-03-24T03:41:55.166Z,94.4267
2024-03-24T03:42:58.189Z,94.3760
2024-03-24T03:44:01.255Z,94.2876
2024-03-24T03:45:04.281Z,94.2228
2024-03-24T03:46:07.320Z,94.2484
2024-03-24T03:47:10.306Z,94.2478
2024-03-24T03:48:13.398Z,94.2884
2024-03-24T03:49:16.523Z,94.3021
2024-03-24T03:50:19.574Z,94.3091
2024-03-24T03:51:22.618Z,94.3447
2024-03-24T03:52:25.668Z,94.3676
2024-03-24T03:53:28.686Z,94.4780
2024-03-24T03:54:31.731Z,94.6160
2024-03-24T03:55:34.750Z,94.6895
2024-03-24T03:56:37.861Z,94.7081
2024-03-24T03:57:40.867Z,94.7387
2024-03-24T03:58:43.891Z,94.7370
2024-03-24T03:59:46.987Z,94.7278
2024-03-24T04:00:49.949Z,94.6188
2024-03-24T04:01:52.931Z,94.5196
2024-03-24T04:02:55.972Z,94.4646
2024-03-24T04:03:58.942Z,94.4823
2024-03-24T04:05:02.044Z,94.4721
2024-03-24T04:06:05.067Z,94.3979
2024-03-24T04:07:08.119Z,94.3178
2024-03-24T04:08:11.186Z,94.2479
2024-03-24T04:09:14.213Z,94.2468
2024-03-24T04:10:17.395Z,94.2777
2024-03-24T04:11:20.420Z,94.3072
2024-03-24T04:12:23.472Z,94.3263
2024-03-24T04:13:26.775Z,94.3041
2024-03-24T04:14:29.795Z,94.3292
2024-03-24T04:15:32.781Z,94.3638
2024-03-24T04:16:35.970Z,94.2973
2024-03-24T04:17:38.953Z,94.1608
2024-03-24T04:18:42.023Z,94.0530
2024-03-24T04:19:45.028Z,93.9114
2024-03-24T04:20:48.294Z,93.8943
2024-03-24T04:21:51.343Z,93.8187
2024-03-24T04:22:54.373Z,93.7291
2024-03-24T04:23:57.423Z,93.6813
2024-03-24T04:25:00.528Z,93.5760
2024-03-24T04:26:03.525Z,93.5769
2024-03-24T04:27:06.544Z,93.5955
2024-03-24T04:28:09.557Z,93.6238
2024-03-24T04:29:12.562Z,93.6252
2024-03-24T04:30:15.682Z,93.6763
2024-03-24T04:31:18.689Z,93.7153
2024-03-24T04:32:21.745Z,93.6683
2024-03-24T04:33:24.755Z,93.5846
2024-03-24T04:34:27.766Z,93.6041
2024-03-24T04:35:30.857Z,93.6050
2024-03-24T04:36:34.043Z,93.6032
2024-03-24T04:37:37.046Z,93.6773
2024-03-24T04:38:40.059Z,93.7575
2024-03-24T04:39:43.326Z,93.8759
2024-03-24T04:40:46.396Z,93.9757
2024-03-24T04:41:49.475Z,93.8912
2024-03-24T04:42:52.643Z,93.8600
2024-03-24T04:43:55.782Z,93.8713
2024-03-24T04:44:58.843Z,93.9526
2024-03-24T04:46:01.894Z,93.9707
2024-03-24T04:47:04.919Z,94.0764
2024-03-24T04:48:07.955Z,94.1161
2024-03-24T04:49:11.016Z,94.2097
2024-03-24T04:50:14.042Z,94.2798
2024-03-24T04:51:17.143Z,94.3805
2024-03-24T04:52:20.184Z,94.5091
2024-03-24T04:53:23.252Z,94.6055
2024-03-24T04:54:26.515Z,94.6144
2024-03-24T04:55:29.586Z,94.5718
2024-03-24T04:56:32.612Z,94.4875
2024-03-24T04:57:35.632Z,94.5382
2024-03-24T04:58:38.691Z,94.5849
2024-03-24T04:59:41.784Z,94.6163
2024-03-24T05:00:44.868Z,94.6537
2024-03-24T05:01:47.884Z,94.5836
2024-03-24T05:02:50.943Z,94.5132
2024-03-24T05:03:53.961Z,94.4007
2024-03-24T05:04:56.956Z,94.3186
2024-03-24T05:06:00.049Z,94.3833
2024-03-24T05:07:03.088Z,94.4570
2024-03-24T05:08:06.114Z,94.5135
2024-03-24T05:09:09.123Z,94.7193
2024-03-24T05:10:12.219Z,94.8717
2024-03-24T05:11:15.203Z,94.9426
2024-03-24T05:12:18.351Z,95.1129
2024-03-24T05:13:21.343Z,95.2299
2024-03-24T05:14:24.387Z,95.3032
2024-03-24T05:15:27.455Z,95.3524
2024-03-24T05:16:30.489Z,95.4055
2024-03-24T05:17:33.631Z,95.4031
2024-03-24T05:18:36.800Z,95.2995
2024-03-24T05:19:39.834Z,95.2575
2024-03-24T05:20:42.869Z,95.1568
2024-03-24T05:21:45.935Z,95.1256
2024-03-24T05:22:49.036Z,95.2066
2024-03-24T05:23:52.104Z,95.2528
2024-03-24T05:24:55.362Z,95.2908
2024-03-24T05:25:58.365Z,95.3701
2024-03-24T05:27:01.465Z,95.4112
2024-03-24T05:28:04.543Z,95.4131
2024-03-24T05:29:07.572Z,95.4331
2024-03-24T05:30:10.643Z,95.3809
2024-03-24T05:31:13.919Z,95.3437
2024-03-24T05:32:16.952Z,95.3577
2024-03-24T05:33:19.992Z,95.3467
2024-03-24T05:34:23.032Z,95.2913
2024-03-24T05:35:26.068Z,89.9807
2024-03-24T05:36:28.561Z,0.0000
2024-03-24T05:37:30.997Z,0.0000
2024-03-24T05:38:33.593Z,0.0000
2024-03-24T05:39:36.049Z,0.0000
2024-03-24T05:40:38.533Z,0.0000
2024-03-24T05:41:41.109Z,0.0000
2024-03-24T05:42:43.624Z,0.0000
2024-03-24T05:43:46.237Z,0.0000
2024-03-24T05:44:48.727Z,0.0000
2024-03-24T05:45:51.191Z,0.0000
2024-03-24T05:46:53.771Z,0.0000
2024-03-24T05:47:56.225Z,0.0000
2024-03-24T05:48:58.701Z,0.0000
2024-03-24T05:50:01.198Z,0.0000
2024-03-24T05:51:03.699Z,0.0000
2024-03-24T05:52:06.161Z,0.0000
2024-03-24T05:53:08.808Z,0.0000
2024-03-24T05:54:11.315Z,0.0000
2024-03-24T05:55:13.756Z,0.0000
2024-03-24T05:56:16.307Z,0.0000
2024-03-24T05:57:18.792Z,0.0000
2024-03-24T05:58:21.255Z,0.0000
2024-03-24T05:59:23.896Z,0.0000
2024-03-24T06:00:26.505Z,0.0000
2024-03-24T06:01:28.922Z,0.0000
2024-03-24T06:02:31.360Z,0.0000
2024-03-24T06:03:34.087Z,0.0000
2024-03-24T06:04:36.482Z,0.0000
2024-03-24T06:05:38.900Z,0.0000
2024-03-24T06:06:41.353Z,0.0000
2024-03-24T06:07:43.811Z,0.0000
2024-03-24T06:08:46.375Z,0.0000
2024-03-24T06:09:48.791Z,0.0000
2024-03-24T06:10:51.514Z,0.0000
2024-03-24T06:11:54.033Z,0.0000
2024-03-24T06:12:56.440Z,0.0000
2024-03-24T06:13:58.960Z,0.0000
2024-03-24T06:15:01.382Z,0.0000
2024-03-24T06:16:03.832Z,0.0000
2024-03-24T06:17:06.257Z,0.0000
2024-03-24T06:18:08.945Z,0.0000
2024-03-24T06:19:14.213Z,0.0000
2024-03-24T06:20:13.735Z,0.0000
2024-03-24T06:21:16.157Z,0.0000
2024-03-24T06:22:18.574Z,0.0000
2024-03-24T06:23:21.022Z,0.0000
2024-03-24T06:24:23.461Z,0.0000
2024-03-24T06:25:25.911Z,0.0000
2024-03-24T06:26:28.474Z,0.0000
2024-03-24T06:27:30.925Z,0.0000
2024-03-24T06:28:33.603Z,0.0000
2024-03-24T06:29:36.047Z,0.0000
2024-03-24T06:30:38.667Z,0.0000
2024-03-24T06:31:43.842Z,0.0000
2024-03-24T06:32:44.808Z,0.0000
2024-03-24T06:33:47.277Z,0.0000
2024-03-24T06:34:49.713Z,0.0000
2024-03-24T06:35:52.311Z,0.0000
2024-03-24T06:36:54.718Z,0.0000
2024-03-24T06:37:57.179Z,0.0000
2024-03-24T06:38:59.604Z,0.0000
2024-03-24T06:40:02.031Z,0.0000
2024-03-24T06:41:04.479Z,0.0000
2024-03-24T06:42:07.027Z,0.0000
2024-03-24T06:43:09.521Z,0.0000
2024-03-24T06:44:11.914Z,0.0000
2024-03-24T06:45:14.382Z,0.0000
2024-03-24T06:46:16.958Z,0.0000
2024-03-24T06:47:19.398Z,0.0000
2024-03-24T06:48:21.865Z,0.0000
2024-03-24T06:49:24.303Z,0.0000
2024-03-24T06:50:26.874Z,0.0000
2024-03-24T06:51:29.312Z,0.0000
2024-03-24T06:52:32.040Z,0.0000
2024-03-24T06:53:34.800Z,0.0000
2024-03-24T06:54:37.370Z,0.0000
2024-03-24T06:55:39.794Z,0.0000
2024-03-24T06:56:42.554Z,0.0000
2024-03-24T06:57:45.284Z,0.0000
2024-03-24T06:58:47.745Z,0.0000
2024-03-24T06:59:50.182Z,0.0000
2024-03-24T07:00:52.618Z,0.0000
2024-03-24T07:01:55.200Z,0.0000
2024-03-24T07:02:57.638Z,0.0000
2024-03-24T07:04:00.299Z,0.0000
2024-03-24T07:05:02.760Z,0.0000
2024-03-24T07:06:05.429Z,0.0000
2024-03-24T07:07:07.842Z,0.0000
2024-03-24T07:08:10.279Z,0.0000
2024-03-24T07:09:12.742Z,0.0000
2024-03-24T07:10:15.183Z,0.0000
2024-03-24T07:11:17.762Z,0.0000
2024-03-24T07:12:20.189Z,0.0000
2024-03-24T07:13:22.830Z,0.0000
2024-03-24T07:14:25.272Z,0.0000
2024-03-24T07:15:27.741Z,0.0000
2024-03-24T07:16:30.199Z,0.0000
2024-03-24T07:17:32.621Z,0.0000
2024-03-24T07:18:35.041Z,0.0000
2024-03-24T07:19:37.601Z,0.0000
2024-03-24T07:20:40.040Z,0.0000
2024-03-24T07:21:42.448Z,0.0000
2024-03-24T07:22:44.940Z,0.0000
2024-03-24T07:23:47.385Z,0.0000
2024-03-24T07:24:49.930Z,0.0000
2024-03-24T07:25:52.632Z,0.0000
2024-03-24T07:26:55.133Z,0.0000
2024-03-24T07:27:58.069Z,51.4329
2024-03-24T07:29:01.124Z,84.2646
2024-03-24T07:30:04.161Z,84.3972
2024-03-24T07:31:07.180Z,84.8010
2024-03-24T07:32:10.231Z,84.8587
2024-03-24T07:33:13.410Z,85.4604
2024-03-24T07:34:16.434Z,84.7895
2024-03-24T07:35:19.486Z,85.2083
2024-03-24T07:36:22.509Z,85.5366
2024-03-24T07:37:25.520Z,85.2561
2024-03-24T07:38:28.543Z,85.4816
2024-03-24T07:39:31.576Z,84.8132
2024-03-24T07:40:34.871Z,83.5836
2024-03-24T07:41:37.914Z,83.2882
2024-03-24T07:42:43.515Z,83.4679
2024-03-24T07:43:44.061Z,82.1052
2024-03-24T07:44:47.111Z,82.1859
2024-03-24T07:45:50.127Z,82.6889
2024-03-24T07:46:53.226Z,82.8346
2024-03-24T07:47:56.258Z,82.3002
2024-03-24T07:48:59.298Z,83.0165
2024-03-24T07:50:02.335Z,83.0455
2024-03-24T07:51:05.342Z,82.2118
2024-03-24T07:52:08.361Z,82.5683
2024-03-24T07:53:11.390Z,83.4147
2024-03-24T07:54:14.526Z,83.4608
2024-03-24T07:55:17.584Z,82.1087
2024-03-24T07:56:20.557Z,82.5382
2024-03-24T07:57:23.831Z,82.0434
2024-03-24T07:58:27.053Z,82.3801
2024-03-24T07:59:30.198Z,82.8570
2024-03-24T08:00:33.253Z,83.1800
2024-03-24T08:01:36.305Z,82.3351
2024-03-24T08:02:39.387Z,82.1846
2024-03-24T08:03:42.381Z,82.7673
2024-03-24T08:04:45.471Z,83.1884
2024-03-24T08:05:48.548Z,82.8012
2024-03-24T08:06:51.630Z,81.3730
2024-03-24T08:07:56.440Z,81.1805
2024-03-24T08:08:56.422Z,80.3344
2024-03-24T08:09:59.651Z,78.5573
2024-03-24T08:11:02.703Z,77.4779
2024-03-24T08:12:05.831Z,77.0911
2024-03-24T08:13:08.841Z,77.7693
2024-03-24T08:14:11.936Z,77.5023
2024-03-24T08:15:14.953Z,76.7086
2024-03-24T08:16:17.965Z,76.4564
2024-03-24T08:17:21.267Z,77.0706
2024-03-24T08:18:24.301Z,77.1857
2024-03-24T08:19:27.341Z,78.7345
2024-03-24T08:20:30.431Z,78.1848
2024-03-24T08:21:33.522Z,77.1260
2024-03-24T08:22:36.804Z,76.0137
2024-03-24T08:23:39.909Z,76.6396
2024-03-24T08:24:42.928Z,77.6968
2024-03-24T08:25:45.896Z,77.2680
2024-03-24T08:26:48.968Z,77.6928
2024-03-24T08:27:51.981Z,77.8831
2024-03-24T08:28:55.007Z,77.4355
2024-03-24T08:29:58.052Z,74.8368
2024-03-24T08:31:01.061Z,74.9847
2024-03-24T08:32:04.074Z,74.2844
2024-03-24T08:33:07.181Z,73.3954
2024-03-24T08:34:10.220Z,72.6955
2024-03-24T08:35:13.221Z,73.2748
2024-03-24T08:36:16.629Z,72.0506
2024-03-24T08:37:19.696Z,72.8960
2024-03-24T08:38:22.869Z,73.9916
2024-03-24T08:39:25.889Z,74.5928
2024-03-24T08:40:31.120Z,75.5020
2024-03-24T08:41:31.911Z,75.0590
2024-03-24T08:42:34.904Z,74.5205
2024-03-24T08:43:37.899Z,74.4514
2024-03-24T08:44:40.958Z,74.5784
2024-03-24T08:45:43.994Z,74.4335
2024-03-24T08:46:47.043Z,74.1582
2024-03-24T08:47:50.058Z,73.7631
2024-03-24T08:48:53.087Z,72.9178
2024-03-24T08:49:56.147Z,73.0215
2024-03-24T08:50:59.126Z,72.9226
2024-03-24T08:52:02.253Z,72.3455
2024-03-24T08:53:05.258Z,73.2717
2024-03-24T08:54:08.567Z,75.2089
2024-03-24T08:55:11.704Z,74.6801
2024-03-24T08:56:14.700Z,75.2092
2024-03-24T08:57:17.736Z,76.3695
2024-03-24T08:58:20.800Z,76.8683
2024-03-24T08:59:23.996Z,76.6707
2024-03-24T09:00:27.190Z,76.5813
2024-03-24T09:01:30.283Z,76.5759
2024-03-24T09:02:33.503Z,75.7906
2024-03-24T09:03:36.600Z,76.0681
2024-03-24T09:04:39.690Z,76.4896
2024-03-24T09:05:42.756Z,75.2119
2024-03-24T09:06:45.769Z,76.3601
2024-03-24T09:07:48.817Z,73.6378
2024-03-24T09:08:51.865Z,73.1509
2024-03-24T09:09:54.893Z,73.7118
2024-03-24T09:10:57.888Z,71.5089
2024-03-24T09:12:01.046Z,71.5799
2024-03-24T09:13:04.060Z,70.1900
2024-03-24T09:14:07.076Z,69.1951
2024-03-24T09:15:10.267Z,68.8003
2024-03-24T09:16:13.239Z,67.0984
2024-03-24T09:17:16.392Z,65.0776
2024-03-24T09:18:19.495Z,64.2029
2024-03-24T09:19:22.548Z,65.2007
2024-03-24T09:20:25.620Z,63.4705
2024-03-24T09:21:28.643Z,63.3136
2024-03-24T09:22:31.657Z,63.9404
2024-03-24T09:23:34.706Z,63.3001
2024-03-24T09:24:37.752Z,60.6190
2024-03-24T09:25:40.772Z,59.1968
2024-03-24T09:26:43.822Z,59.6441
2024-03-24T09:27:46.869Z,57.5319
2024-03-24T09:28:49.889Z,56.3222
2024-03-24T09:29:52.989Z,55.8862
2024-03-24T09:30:56.033Z,56.2414
2024-03-24T09:31:59.075Z,55.6101
2024-03-24T09:33:02.092Z,55.6581
2024-03-24T09:34:05.354Z,58.3999
2024-03-24T09:35:13.272Z,58.0746
2024-03-24T09:36:10.583Z,56.6093
2024-03-24T09:37:13.575Z,57.6614
2024-03-24T09:38:16.856Z,60.4687
2024-03-24T09:39:19.962Z,61.5675
2024-03-24T09:40:23.054Z,60.3480
2024-03-24T09:41:26.096Z,63.3403
2024-03-24T09:42:29.100Z,66.0394
2024-03-24T09:43:32.160Z,65.1366
2024-03-24T09:44:35.234Z,63.1682
2024-03-24T09:45:38.260Z,61.3286
2024-03-24T09:46:41.242Z,61.9109
2024-03-24T09:47:44.301Z,62.9810
2024-03-24T09:48:47.301Z,63.9478
2024-03-24T09:49:50.319Z,64.7096
2024-03-24T09:50:53.393Z,61.4789
2024-03-24T09:51:56.452Z,59.5273
2024-03-24T09:52:59.489Z,58.1510
2024-03-24T09:54:02.553Z,58.8259
2024-03-24T09:55:05.580Z,58.5085
2024-03-24T09:56:08.608Z,56.4045
2024-03-24T09:57:11.663Z,55.4916
2024-03-24T09:58:17.214Z,57.0782
2024-03-24T09:59:17.462Z,58.3930
2024-03-24T10:00:20.724Z,58.1108
2024-03-24T10:01:23.826Z,56.5192
2024-03-24T10:02:26.845Z,53.3237
2024-03-24T10:03:29.922Z,54.8987
2024-03-24T10:04:32.922Z,54.2246
2024-03-24T10:05:35.981Z,55.4149
2024-03-24T10:06:38.996Z,56.6779
2024-03-24T10:07:42.053Z,58.7005
2024-03-24T10:08:45.104Z,59.6735
2024-03-24T10:09:48.187Z,59.3226
2024-03-24T10:10:51.163Z,60.5397
2024-03-24T10:11:54.314Z,62.2797
2024-03-24T10:12:57.334Z,63.2738
2024-03-24T10:14:00.364Z,62.1897
2024-03-24T10:15:03.389Z,62.5027
2024-03-24T10:16:06.400Z,63.0711
2024-03-24T10:17:09.433Z,63.6675
2024-03-24T10:18:09.652Z,63.5073
2024-03-24T10:19:12.697Z,63.9100
2024-03-24T10:20:15.746Z,63.3751
2024-03-24T10:21:18.741Z,64.6982
2024-03-24T10:22:22.090Z,65.9813
2024-03-24T10:23:25.100Z,68.2681
2024-03-24T10:24:28.140Z,69.1305
2024-03-24T10:25:31.198Z,69.7423
2024-03-24T10:26:34.269Z,70.5515
2024-03-24T10:27:37.297Z,71.4127
2024-03-24T10:28:40.313Z,71.1197
2024-03-24T10:29:43.429Z,71.7198
2024-03-24T10:30:46.445Z,72.5327
2024-03-24T10:31:52.731Z,72.4540
2024-03-24T10:32:52.843Z,72.6709
2024-03-24T10:33:55.848Z,71.5171
2024-03-24T10:34:58.858Z,70.3080
2024-03-24T10:36:02.032Z,67.9158
2024-03-24T10:37:05.041Z,66.1318
2024-03-24T10:38:08.189Z,67.0716
2024-03-24T10:39:11.242Z,66.9135
2024-03-24T10:40:14.371Z,67.5221
2024-03-24T10:41:17.420Z,66.7264
2024-03-24T10:42:20.459Z,65.5173
2024-03-24T10:43:23.525Z,64.5578
2024-03-24T10:44:26.502Z,62.7468
2024-03-24T10:45:29.542Z,63.9437
2024-03-24T10:46:32.579Z,64.8855
2024-03-24T10:47:35.712Z,64.3800
2024-03-24T10:48:38.730Z,65.0145
2024-03-24T10:49:41.789Z,65.7064
2024-03-24T10:50:44.814Z,64.6493
2024-03-24T10:51:47.855Z,63.2793
2024-03-24T10:52:53.250Z,61.2383
2024-03-24T10:53:53.318Z,63.1716
2024-03-24T10:54:56.348Z,60.5269
2024-03-24T10:55:59.379Z,61.4741
2024-03-24T10:57:02.394Z,61.3898
2024-03-24T10:58:05.413Z,60.3454
2024-03-24T10:59:11.307Z,60.8552
2024-03-24T11:00:08.717Z,63.1960
2024-03-24T11:01:11.999Z,62.7947
2024-03-24T11:02:15.077Z,64.8937
2024-03-24T11:03:18.131Z,65.6870
2024-03-24T11:04:21.149Z,67.4745
2024-03-24T11:05:24.160Z,69.5092
2024-03-24T11:06:27.180Z,70.6411
2024-03-24T11:07:30.246Z,74.2918
2024-03-24T11:08:33.269Z,76.7589
2024-03-24T11:09:36.289Z,79.1089
2024-03-24T11:10:39.346Z,80.2880
2024-03-24T11:11:42.478Z,81.5809
2024-03-24T11:12:45.609Z,82.4519
2024-03-24T11:13:48.778Z,84.5799
2024-03-24T11:14:51.880Z,84.6729
2024-03-24T11:15:54.904Z,83.9354
2024-03-24T11:16:57.408Z,83.9488
2024-03-24T11:17:59.971Z,82.3577
2024-03-24T11:19:02.420Z,82.4781
2024-03-24T11:20:04.886Z,81.0788
2024-03-24T11:21:07.347Z,78.6032
2024-03-24T11:22:09.772Z,76.9972
2024-03-24T11:23:12.292Z,78.3452
2024-03-24T11:24:14.747Z,78.7989
2024-03-24T11:25:17.350Z,76.7861
2024-03-24T11:26:19.898Z,76.2856
2024-03-24T11:27:22.926Z,76.9389
2024-03-24T11:28:23.083Z,74.8439
2024-03-24T11:29:26.177Z,76.6412
2024-03-24T11:30:29.177Z,74.0540
2024-03-24T11:31:32.167Z,72.4008
2024-03-24T11:32:35.178Z,74.5101
2024-03-24T11:33:38.220Z,71.7806
2024-03-24T11:34:41.248Z,72.9324
2024-03-24T11:35:44.340Z,73.8830
2024-03-24T11:36:47.375Z,75.3117
2024-03-24T11:37:50.445Z,74.6685
2024-03-24T11:38:53.418Z,72.5311
2024-03-24T11:39:56.495Z,73.2558
2024-03-24T11:40:59.539Z,71.4458
2024-03-24T11:42:02.592Z,69.9289
2024-03-24T11:43:05.619Z,67.1227
2024-03-24T11:44:08.645Z,68.1043
2024-03-24T11:45:11.727Z,65.5590
2024-03-24T11:46:14.717Z,64.7157
2024-03-24T11:47:17.778Z,63.8824
2024-03-24T11:48:20.829Z,65.0396
2024-03-24T11:49:23.849Z,63.0243
2024-03-24T11:50:27.239Z,61.6524
2024-03-24T11:51:30.262Z,61.4895
2024-03-24T11:52:33.366Z,62.2076
2024-03-24T11:53:36.395Z,63.0577
2024-03-24T11:54:39.420Z,61.9259
2024-03-24T11:55:42.419Z,62.9351
2024-03-24T11:56:45.465Z,60.8636
2024-03-24T11:57:48.529Z,60.2274
2024-03-24T11:58:51.540Z,61.4351
2024-03-24T11:59:54.576Z,61.1672
2024-03-24T12:00:57.628Z,62.0390
2024-03-24T12:02:00.662Z,64.4491
2024-03-24T12:03:03.747Z,60.9011
2024-03-24T12:04:06.736Z,60.5437
2024-03-24T12:05:09.748Z,61.5576
2024-03-24T12:06:12.798Z,61.9076
2024-03-24T12:07:15.898Z,65.0590
2024-03-24T12:08:18.908Z,62.7925
2024-03-24T12:09:21.921Z,63.4098
2024-03-24T12:10:24.987Z,61.6415
2024-03-24T12:11:28.027Z,61.4143
2024-03-24T12:12:31.067Z,61.7600
2024-03-24T12:13:34.116Z,60.3939
2024-03-24T12:14:37.146Z,58.2724
2024-03-24T12:15:40.171Z,59.5201
2024-03-24T12:16:43.247Z,60.2973
2024-03-24T12:17:46.287Z,60.8320
2024-03-24T12:18:49.306Z,59.1421
2024-03-24T12:19:52.372Z,58.7872
2024-03-24T12:20:55.504Z,56.0742
2024-03-24T12:21:58.570Z,54.3453
2024-03-24T12:23:01.606Z,55.6484
2024-03-24T12:24:04.826Z,54.3085
2024-03-24T12:25:07.824Z,54.4820
2024-03-24T12:26:10.834Z,57.5113
2024-03-24T12:27:13.940Z,57.0423
2024-03-24T12:28:16.985Z,55.3728
2024-03-24T12:29:20.020Z,54.2604
2024-03-24T12:30:23.074Z,51.7536
2024-03-24T12:31:26.426Z,52.6075
2024-03-24T12:32:29.461Z,52.2631
2024-03-24T12:33:32.499Z,53.6567
2024-03-24T12:34:35.540Z,55.7235
2024-03-24T12:35:38.588Z,55.1642
2024-03-24T12:36:41.618Z,57.2953
2024-03-24T12:37:44.698Z,57.6169
2024-03-24T12:38:47.719Z,58.7746
2024-03-24T12:39:50.736Z,58.0141
2024-03-24T12:40:55.245Z,58.8618
2024-03-24T12:41:54.968Z,59.7764
2024-03-24T12:42:58.160Z,60.2479
2024-03-24T12:44:01.303Z,58.6300
2024-03-24T12:45:04.353Z,58.6589